Time;durP1;ratioP1;P1;durP2;ratioP2;P2;SDS_P1;SDS_P2;PMS_P1;PMS_P2;Temp;Humidity;BMP_temperature;BMP_pressure;BME280_temperature;BME280_humidity;BME280_pressure;Samples;Min_cycle;Max_cycle;Signal;HPM_P1;HPM_P2
2024/01/08 00:01:36;;;;;;;2.53;1.55;;;-1.00;99.90;;;;;;5073283;28;20025;-85
2024/01/08 00:04:03;;;;;;;2.47;1.35;;;-1.00;99.90;;;;;;5038947;28;20063;-86
2024/01/08 00:06:29;;;;;;;2.63;1.58;;;-1.00;99.90;;;;;;5040804;28;20032;-86
2024/01/08 00:08:55;;;;;;;2.83;1.52;;;-1.10;99.90;;;;;;5042181;28;20480;-85
2024/01/08 00:11:21;;;;;;;3.78;1.50;;;-1.10;99.90;;;;;;5075415;28;20364;-85
2024/01/08 00:13:46;;;;;;;3.28;1.50;;;-1.10;99.90;;;;;;5092118;28;20027;-86
2024/01/08 00:16:12;;;;;;;2.90;1.65;;;-1.10;99.90;;;;;;5059140;28;20028;-86
2024/01/08 00:18:38;;;;;;;3.05;2.05;;;-1.10;99.90;;;;;;5093331;28;20141;-86
2024/01/08 00:21:03;;;;;;;3.03;1.60;;;-1.10;99.90;;;;;;5058342;28;20039;-86
2024/01/08 00:23:30;;;;;;;2.78;1.58;;;-1.20;99.90;;;;;;5058644;28;20043;-86
2024/01/08 00:25:56;;;;;;;2.70;1.73;;;-1.10;99.90;;;;;;5075091;28;20032;-85
2024/01/08 00:28:22;;;;;;;3.85;2.05;;;-1.10;99.90;;;;;;5076378;28;20024;-85
2024/01/08 00:30:48;;;;;;;3.85;2.03;;;-1.10;99.90;;;;;;5079237;28;20483;-86
2024/01/08 00:33:14;;;;;;;4.18;2.38;;;-1.20;99.90;;;;;;5096062;28;20028;-86
2024/01/08 00:35:39;;;;;;;3.97;1.92;;;-1.20;99.90;;;;;;5097045;28;20016;-86
2024/01/08 00:38:05;;;;;;;5.15;2.25;;;-1.30;99.90;;;;;;5046958;28;20032;-86
2024/01/08 00:40:31;;;;;;;5.47;2.30;;;-1.30;99.90;;;;;;5058845;28;20028;-85
2024/01/08 00:42:57;;;;;;;3.47;2.13;;;-1.30;99.90;;;;;;5062042;28;20032;-86
2024/01/08 00:45:23;;;;;;;3.03;1.90;;;-1.40;99.90;;;;;;5079387;28;20032;-86
2024/01/08 00:47:49;;;;;;;3.58;2.10;;;-1.40;99.90;;;;;;5078796;28;20028;-86
2024/01/08 00:50:16;;;;;;;4.40;2.20;;;-1.30;99.90;;;;;;5078866;28;20028;-86
2024/01/08 00:52:42;;;;;;;3.67;2.03;;;-1.40;99.90;;;;;;5061986;28;20055;-86
2024/01/08 00:55:08;;;;;;;4.40;2.30;;;-1.40;99.90;;;;;;5061737;28;20032;-85
2024/01/08 00:57:34;;;;;;;4.43;2.38;;;-1.40;99.90;;;;;;5062023;28;20032;-86
2024/01/08 01:00:00;;;;;;;4.25;2.22;;;-1.40;99.90;;;;;;5078537;28;20055;-86
2024/01/08 01:02:26;;;;;;;3.83;2.22;;;-1.40;99.90;;;;;;5095473;28;20028;-86
2024/01/08 01:04:52;;;;;;;5.43;2.72;;;-1.50;99.90;;;;;;5078405;28;20051;-86
2024/01/08 01:07:18;;;;;;;3.80;2.38;;;-1.50;99.90;;;;;;5069616;28;20373;-86
2024/01/08 01:09:43;;;;;;;4.22;2.42;;;-1.50;99.90;;;;;;5041715;28;20025;-86
2024/01/08 01:12:09;;;;;;;4.78;2.65;;;-1.50;99.90;;;;;;5070576;28;20031;-86
2024/01/08 01:14:36;;;;;;;4.55;2.65;;;-1.50;99.90;;;;;;5061705;28;20052;-86
2024/01/08 01:17:01;;;;;;;5.22;2.78;;;-1.50;99.90;;;;;;5095390;28;20515;-86
2024/01/08 01:19:27;;;;;;;5.03;2.70;;;-1.50;99.90;;;;;;5078236;28;20039;-86
2024/01/08 01:21:53;;;;;;;5.25;3.00;;;-1.50;99.90;;;;;;5086598;28;20028;-86
2024/01/08 01:24:19;;;;;;;7.30;3.00;;;-1.50;99.90;;;;;;5077961;28;20024;-86
2024/01/08 01:26:45;;;;;;;5.05;2.90;;;-1.50;99.90;;;;;;5061163;28;20063;-86
2024/01/08 01:29:11;;;;;;;5.05;2.55;;;-1.60;99.90;;;;;;5082593;23;20398;-73
2024/01/08 01:31:36;;;;;;;4.43;2.50;;;-1.50;99.90;;;;;;5081548;28;20028;-73
2024/01/08 01:34:03;;;;;;;6.18;2.80;;;-1.50;99.90;;;;;;5095801;28;20103;-73
2024/01/08 01:36:34;;;;;;;4.85;2.63;;;-1.60;99.90;;;;;;5096264;28;20473;-73
2024/01/08 01:39:04;;;;;;;5.50;3.03;;;-1.60;99.90;;;;;;5095665;28;20028;-73
2024/01/08 01:41:30;;;;;;;6.03;3.03;;;-1.60;99.90;;;;;;5095660;28;20036;-73
2024/01/08 01:43:56;;;;;;;4.32;2.60;;;-1.60;99.90;;;;;;5095328;28;20115;-73
2024/01/08 01:46:34;;;;;;;5.13;3.10;;;-1.60;99.90;;;;;;5077958;28;20527;-73
2024/01/08 01:49:00;;;;;;;7.03;3.33;;;-1.60;99.90;;;;;;5096126;28;20023;-73
2024/01/08 01:51:26;;;;;;;6.43;3.88;;;-1.70;99.90;;;;;;5095301;28;20384;-73
2024/01/08 01:53:52;;;;;;;6.53;3.47;;;-1.70;99.90;;;;;;5095438;28;20437;-73
2024/01/08 01:56:18;;;;;;;6.90;3.70;;;-1.70;99.90;;;;;;5095439;28;20024;-73
2024/01/08 01:58:46;;;;;;;9.13;4.05;;;-1.70;99.90;;;;;;5095577;28;20028;-73
2024/01/08 02:01:12;;;;;;;6.38;3.45;;;-1.70;99.90;;;;;;5095291;28;20594;-73
2024/01/08 02:03:39;;;;;;;6.82;3.90;;;-1.80;99.90;;;;;;5094240;28;20036;-73
2024/01/08 02:06:08;;;;;;;8.68;4.38;;;-1.80;99.90;;;;;;5095191;28;20480;-73
2024/01/08 02:08:35;;;;;;;7.63;4.35;;;-1.80;99.90;;;;;;5095191;28;20077;-73
2024/01/08 02:11:01;;;;;;;7.85;4.47;;;-1.80;99.90;;;;;;5094909;28;20430;-73
2024/01/08 02:13:27;;;;;;;11.48;5.03;;;-1.80;99.90;;;;;;5076623;28;20064;-73
2024/01/08 02:15:53;;;;;;;7.28;3.80;;;-1.80;99.90;;;;;;5093942;28;20048;-73
2024/01/08 02:18:19;;;;;;;8.85;4.38;;;-1.80;99.90;;;;;;5093515;28;20031;-73
2024/01/08 02:20:45;;;;;;;9.43;4.85;;;-1.80;99.90;;;;;;5094747;28;20494;-73
2024/01/08 02:23:11;;;;;;;9.02;4.90;;;-1.80;99.90;;;;;;5094859;28;20032;-73
2024/01/08 02:25:37;;;;;;;7.50;4.13;;;-1.90;99.90;;;;;;5094906;28;20024;-73
2024/01/08 02:28:03;;;;;;;7.05;4.30;;;-1.90;99.90;;;;;;5094645;28;20036;-73
2024/01/08 02:30:28;;;;;;;9.52;4.93;;;-1.90;99.90;;;;;;5076439;28;20120;-73
2024/01/08 02:32:54;;;;;;;8.00;4.75;;;-1.90;99.90;;;;;;5094673;28;20105;-73
2024/01/08 02:35:20;;;;;;;8.45;4.32;;;-1.90;99.90;;;;;;5094644;28;20032;-73
2024/01/08 02:37:45;;;;;;;7.55;4.55;;;-1.80;99.90;;;;;;5094665;28;20059;-73
2024/01/08 02:40:12;;;;;;;6.93;4.32;;;-1.90;99.90;;;;;;5094615;28;20403;-73
2024/01/08 02:42:41;;;;;;;8.65;4.22;;;-1.80;99.90;;;;;;5094151;28;20043;-73
2024/01/08 02:45:09;;;;;;;6.97;3.97;;;-1.80;99.90;;;;;;5094243;28;20032;-73
2024/01/08 02:47:37;;;;;;;7.15;4.20;;;-1.80;99.90;;;;;;5094406;28;20471;-73
2024/01/08 02:50:07;;;;;;;7.68;4.78;;;-1.80;99.90;;;;;;5094192;28;20025;-73
2024/01/08 02:52:33;;;;;;;9.02;4.90;;;-1.80;99.90;;;;;;5093418;28;20115;-73
2024/01/08 02:54:59;;;;;;;8.93;4.68;;;-1.80;99.90;;;;;;5094277;28;20043;-73
2024/01/08 02:57:26;;;;;;;8.48;4.90;;;-1.80;99.90;;;;;;5094272;28;20506;-73
2024/01/08 02:59:52;;;;;;;8.50;4.65;;;-1.80;99.90;;;;;;5094243;28;20063;-73
2024/01/08 03:02:17;;;;;;;6.88;4.40;;;-1.90;99.90;;;;;;5093952;28;20063;-73
2024/01/08 03:04:43;;;;;;;9.38;5.25;;;-1.90;99.90;;;;;;5093714;28;20082;-73
2024/01/08 03:07:12;;;;;;;11.52;5.40;;;-1.90;99.90;;;;;;5094037;28;20395;-73
2024/01/08 03:09:37;;;;;;;7.53;4.68;;;-1.90;99.90;;;;;;5094046;28;20077;-73
2024/01/08 03:12:03;;;;;;;9.55;4.82;;;-1.90;99.90;;;;;;5093734;28;20020;-73
2024/01/08 03:14:29;;;;;;;9.07;4.72;;;-1.90;99.90;;;;;;5092748;28;20075;-73
2024/01/08 03:16:54;;;;;;;8.35;4.78;;;-1.90;99.90;;;;;;5093955;28;20041;-73
2024/01/08 03:19:20;;;;;;;10.88;5.28;;;-1.80;99.90;;;;;;5093690;28;20552;-73
2024/01/08 03:21:46;;;;;;;8.60;4.97;;;-1.90;99.90;;;;;;5093756;28;20024;-73
2024/01/08 03:24:11;;;;;;;11.57;5.53;;;-1.90;99.90;;;;;;5075751;28;20058;-73
2024/01/08 03:26:37;;;;;;;7.55;4.38;;;-1.90;99.90;;;;;;5094041;28;20036;-73
2024/01/08 03:29:03;;;;;;;7.93;4.03;;;-1.90;99.90;;;;;;5093641;28;20043;-73
2024/01/08 03:31:29;;;;;;;8.10;4.50;;;-1.90;99.90;;;;;;5093301;28;20546;-73
2024/01/08 03:33:55;;;;;;;9.65;5.22;;;-1.90;99.90;;;;;;5093319;28;20028;-73
2024/01/08 03:36:20;;;;;;;9.25;5.53;;;-1.90;99.90;;;;;;5075594;28;20032;-74
2024/01/08 03:38:46;;;;;;;10.00;4.93;;;-1.90;99.90;;;;;;5093878;28;20059;-74
2024/01/08 03:41:13;;;;;;;10.93;5.35;;;-1.90;99.90;;;;;;5093296;28;20077;-73
2024/01/08 03:43:38;;;;;;;8.60;4.75;;;-1.90;99.90;;;;;;5093477;28;20034;-74
2024/01/08 03:46:04;;;;;;;11.02;5.63;;;-1.90;99.90;;;;;;5093431;28;20028;-74
2024/01/08 03:48:30;;;;;;;8.95;5.28;;;-2.00;99.90;;;;;;5093274;28;20024;-73
2024/01/08 03:50:56;;;;;;;9.60;5.00;;;-2.00;99.90;;;;;;5093534;28;20028;-73
2024/01/08 03:53:21;;;;;;;9.70;4.80;;;-2.00;99.90;;;;;;5093503;28;20066;-74
2024/01/08 03:55:47;;;;;;;7.22;4.88;;;-2.00;99.90;;;;;;5093681;28;20059;-74
2024/01/08 03:58:12;;;;;;;8.07;4.90;;;-2.00;99.90;;;;;;5093631;28;20039;-74
2024/01/08 04:00:38;;;;;;;9.80;4.90;;;-2.00;99.90;;;;;;5091896;28;20024;-73
2024/01/08 04:03:04;;;;;;;10.27;4.88;;;-2.00;99.90;;;;;;5092643;28;20046;-74
2024/01/08 04:05:29;;;;;;;10.50;5.65;;;-2.00;99.90;;;;;;5097887;28;20103;-73
2024/01/08 04:07:55;;;;;;;6.13;3.58;;;-2.00;99.90;;;;;;5097446;28;20502;-73
2024/01/08 04:10:21;;;;;;;8.57;4.95;;;-2.00;99.90;;;;;;5098076;28;20475;-74
2024/01/08 04:12:46;;;;;;;10.75;5.07;;;-2.00;99.90;;;;;;5081131;28;20463;-74
2024/01/08 04:15:12;;;;;;;9.77;4.88;;;-2.00;99.90;;;;;;5097130;28;20032;-73
2024/01/08 04:17:38;;;;;;;9.40;5.47;;;-2.00;99.90;;;;;;5097363;28;20036;-74
2024/01/08 04:20:04;;;;;;;10.07;4.90;;;-2.00;99.90;;;;;;5097314;28;20045;-74
2024/01/08 04:22:30;;;;;;;9.07;5.03;;;-2.00;99.90;;;;;;5096845;28;20040;-73
2024/01/08 04:24:56;;;;;;;9.00;5.00;;;-2.00;99.90;;;;;;5097098;28;20077;-73
2024/01/08 04:27:21;;;;;;;10.13;4.95;;;-2.00;99.90;;;;;;5097164;28;20028;-73
2024/01/08 04:29:47;;;;;;;8.50;4.28;;;-2.00;99.90;;;;;;5096627;28;20108;-73
2024/01/08 04:32:12;;;;;;;8.90;5.07;;;-2.00;99.90;;;;;;5096932;28;20032;-73
2024/01/08 04:34:38;;;;;;;8.27;4.90;;;-2.00;99.90;;;;;;5097416;28;20020;-73
2024/01/08 04:37:04;;;;;;;11.32;5.32;;;-2.00;99.90;;;;;;5096962;28;20051;-73
2024/01/08 04:39:29;;;;;;;8.68;4.68;;;-2.00;99.90;;;;;;5097016;28;20110;-73
2024/01/08 04:41:55;;;;;;;9.07;5.13;;;-2.00;99.90;;;;;;5090828;28;20392;-72
2024/01/08 04:44:21;;;;;;;9.30;5.13;;;-2.10;99.90;;;;;;5096541;28;20478;-72
2024/01/08 04:46:46;;;;;;;12.60;5.47;;;-2.10;99.90;;;;;;5096712;28;20039;-72
2024/01/08 04:49:12;;;;;;;10.02;5.45;;;-2.10;99.90;;;;;;5096746;28;20020;-73
2024/01/08 04:51:38;;;;;;;9.13;4.70;;;-2.10;99.90;;;;;;5091169;28;20082;-73
2024/01/08 04:54:04;;;;;;;8.15;4.47;;;-2.10;99.90;;;;;;5096669;28;20024;-73
2024/01/08 04:56:30;;;;;;;9.48;5.57;;;-2.10;99.90;;;;;;5095411;28;20504;-73
2024/01/08 04:58:56;;;;;;;9.25;4.68;;;-2.10;99.90;;;;;;5096597;28;20051;-73
2024/01/08 05:01:22;;;;;;;8.68;4.90;;;-2.10;99.90;;;;;;5096307;28;20032;-73
2024/01/08 05:03:48;;;;;;;8.40;4.82;;;-2.10;99.90;;;;;;5096744;28;20089;-72
2024/01/08 05:06:14;;;;;;;8.18;4.60;;;-2.10;99.90;;;;;;5096387;28;20082;-73
2024/01/08 05:08:40;;;;;;;7.18;4.32;;;-2.10;99.90;;;;;;5078277;28;20479;-72
2024/01/08 05:11:06;;;;;;;9.25;4.95;;;-2.10;99.90;;;;;;5095108;28;20054;-73
2024/01/08 05:13:32;;;;;;;9.18;5.10;;;-2.10;99.90;;;;;;5094824;28;20032;-73
2024/01/08 05:15:58;;;;;;;9.75;4.55;;;-2.10;99.90;;;;;;5095890;28;20025;-72
2024/01/08 05:18:24;;;;;;;8.25;4.20;;;-2.10;99.90;;;;;;5096216;28;20034;-72
2024/01/08 05:20:49;;;;;;;14.05;6.65;;;-2.10;99.90;;;;;;5096109;28;20020;-73
2024/01/08 05:23:15;;;;;;;9.13;4.85;;;-2.10;99.90;;;;;;5096250;28;20426;-72
2024/01/08 05:25:41;;;;;;;11.35;4.90;;;-2.10;99.90;;;;;;5095747;28;20024;-72
2024/01/08 05:28:06;;;;;;;8.27;4.70;;;-2.10;99.90;;;;;;5077600;28;20387;-73
2024/01/08 05:30:33;;;;;;;7.68;4.28;;;-2.10;99.90;;;;;;5096519;28;20107;-72
2024/01/08 05:32:59;;;;;;;13.23;6.05;;;-2.10;99.90;;;;;;5091726;28;20039;-72
2024/01/08 05:35:24;;;;;;;9.55;4.93;;;-2.10;99.90;;;;;;5095885;28;20028;-72
2024/01/08 05:37:50;;;;;;;8.25;4.55;;;-2.10;99.90;;;;;;5094844;28;20028;-72
2024/01/08 05:40:15;;;;;;;10.20;4.95;;;-2.10;99.90;;;;;;5077095;28;20034;-72
2024/01/08 05:42:41;;;;;;;8.88;4.82;;;-2.10;99.90;;;;;;5094180;28;20028;-72
2024/01/08 05:45:07;;;;;;;8.80;4.63;;;-2.10;99.90;;;;;;5095369;28;20087;-72
2024/01/08 05:47:36;;;;;;;7.13;3.97;;;-2.10;99.90;;;;;;5079195;28;20427;-72
2024/01/08 05:50:05;;;;;;;8.15;4.82;;;-2.10;99.90;;;;;;5075608;28;20082;-72
2024/01/08 05:52:31;;;;;;;10.18;4.97;;;-2.20;99.90;;;;;;5057966;28;20031;-72
2024/01/08 05:54:57;;;;;;;10.15;5.63;;;-2.10;99.90;;;;;;5075254;28;20041;-73
2024/01/08 05:57:23;;;;;;;7.10;4.55;;;-2.10;99.90;;;;;;5089943;28;20039;-72
2024/01/08 05:59:49;;;;;;;7.63;4.35;;;-2.10;99.90;;;;;;5095402;28;20075;-72
2024/01/08 06:02:14;;;;;;;10.35;5.00;;;-2.10;99.90;;;;;;5077511;28;20028;-72
2024/01/08 06:04:40;;;;;;;8.27;4.50;;;-2.20;99.90;;;;;;5094981;28;20391;-72
2024/01/08 06:07:05;;;;;;;8.15;4.47;;;-2.20;99.90;;;;;;5095258;28;20120;-72
2024/01/08 06:09:31;;;;;;;9.25;4.60;;;-2.20;99.90;;;;;;5094924;28;20028;-72
2024/01/08 06:11:58;;;;;;;9.25;5.15;;;-2.20;99.90;;;;;;5095206;28;20043;-72
2024/01/08 06:14:25;;;;;;;9.15;4.95;;;-2.20;99.90;;;;;;5095160;28;20024;-72
2024/01/08 06:16:52;;;;;;;10.75;5.82;;;-2.20;99.90;;;;;;5095043;28;20034;-72
2024/01/08 06:19:17;;;;;;;9.80;5.25;;;-2.20;99.90;;;;;;5095026;28;20510;-72
2024/01/08 06:21:43;;;;;;;9.57;5.75;;;-2.20;99.90;;;;;;5095035;28;20028;-72
2024/01/08 06:24:09;;;;;;;12.35;6.60;;;-2.20;99.90;;;;;;5095028;28;20020;-72
2024/01/08 06:26:34;;;;;;;10.27;5.03;;;-2.20;99.90;;;;;;5093621;28;20434;-72
2024/01/08 06:29:00;;;;;;;8.18;5.22;;;-2.20;99.90;;;;;;5094882;28;20119;-72
2024/01/08 06:31:26;;;;;;;9.88;5.47;;;-2.20;99.90;;;;;;5094819;28;20021;-72
2024/01/08 06:33:52;;;;;;;10.00;5.72;;;-2.20;99.90;;;;;;5101166;28;20356;-72
2024/01/08 06:36:18;;;;;;;11.32;5.30;;;-2.20;99.90;;;;;;5109967;28;20047;-72
2024/01/08 06:38:43;;;;;;;9.90;5.03;;;-2.10;99.90;;;;;;5094678;28;20024;-72
2024/01/08 06:41:10;;;;;;;10.60;5.32;;;-2.20;99.90;;;;;;5094344;28;20495;-72
2024/01/08 06:43:35;;;;;;;8.75;4.95;;;-2.20;99.90;;;;;;5094517;28;20123;-72
2024/01/08 06:46:01;;;;;;;9.60;5.40;;;-2.20;99.90;;;;;;5094389;28;20056;-72
2024/01/08 06:48:27;;;;;;;10.63;5.47;;;-2.20;99.90;;;;;;5094552;28;20070;-72
2024/01/08 06:50:53;;;;;;;8.40;4.80;;;-2.10;99.90;;;;;;5094473;28;20059;-72
2024/01/08 06:53:18;;;;;;;11.93;5.90;;;-2.10;99.90;;;;;;5094625;28;20499;-72
2024/01/08 06:55:44;;;;;;;9.23;5.00;;;-2.10;99.90;;;;;;5094113;28;20024;-72
2024/01/08 06:58:10;;;;;;;14.55;6.53;;;-2.10;99.90;;;;;;5094586;28;20024;-72
2024/01/08 07:00:35;;;;;;;10.82;5.45;;;-2.20;99.90;;;;;;5094242;28;20048;-72
2024/01/08 07:03:01;;;;;;;10.82;6.38;;;-2.20;99.90;;;;;;5076176;28;20081;-72
2024/01/08 07:05:27;;;;;;;11.45;6.10;;;-2.10;99.90;;;;;;5094219;28;20085;-72
2024/01/08 07:07:53;;;;;;;13.50;6.45;;;-2.20;99.90;;;;;;5094034;28;20035;-72
2024/01/08 07:10:19;;;;;;;11.98;6.20;;;-2.20;99.90;;;;;;5094204;28;20536;-72
2024/01/08 07:12:46;;;;;;;11.10;6.45;;;-2.20;99.90;;;;;;5094021;28;20035;-72
2024/01/08 07:15:37;;;;;;;11.90;6.15;;;-2.20;99.90;;;;;;5094010;28;20020;-72
2024/01/08 07:18:04;;;;;;;10.43;5.35;;;-2.20;99.90;;;;;;5093057;28;20020;-72
2024/01/08 07:20:29;;;;;;;12.35;6.53;;;-2.20;99.90;;;;;;5092824;28;20024;-72
2024/01/08 07:22:55;;;;;;;12.27;6.05;;;-2.20;99.90;;;;;;5093834;28;20093;-73
2024/01/08 07:25:21;;;;;;;12.93;6.45;;;-2.20;99.90;;;;;;5093628;28;20081;-72
2024/01/08 07:27:47;;;;;;;12.95;6.15;;;-2.20;99.90;;;;;;5093747;28;20028;-73
2024/01/08 07:30:13;;;;;;;12.27;5.97;;;-2.10;99.90;;;;;;5093686;28;20028;-72
2024/01/08 07:32:39;;;;;;;10.70;6.28;;;-2.10;99.90;;;;;;5093662;28;20124;-73
2024/01/08 07:35:05;;;;;;;13.75;6.90;;;-2.10;99.90;;;;;;5094022;28;20413;-73
2024/01/08 07:37:30;;;;;;;9.82;6.10;;;-2.10;99.90;;;;;;5094014;28;20107;-73
2024/01/08 07:39:56;;;;;;;12.07;6.15;;;-2.10;99.90;;;;;;5093367;28;20028;-73
2024/01/08 07:42:22;;;;;;;12.60;7.32;;;-2.10;99.90;;;;;;5076166;28;20035;-73
2024/01/08 07:44:47;;;;;;;12.35;6.43;;;-2.10;99.90;;;;;;5075500;28;20035;-73
2024/01/08 07:47:13;;;;;;;13.73;6.93;;;-2.10;99.90;;;;;;5093495;28;20031;-73
2024/01/08 07:49:39;;;;;;;9.45;5.53;;;-2.10;99.90;;;;;;5093513;28;20085;-73
2024/01/08 07:52:05;;;;;;;15.88;7.18;;;-2.10;99.90;;;;;;5093522;28;20016;-73
2024/01/08 07:54:30;;;;;;;15.95;7.85;;;-2.00;99.90;;;;;;5093472;28;20028;-73
2024/01/08 07:56:56;;;;;;;14.00;6.97;;;-2.00;99.90;;;;;;5093254;28;20027;-73
2024/01/08 07:59:22;;;;;;;12.43;6.97;;;-2.00;99.90;;;;;;5093473;28;20028;-73
2024/01/08 08:01:47;;;;;;;13.13;7.05;;;-2.10;99.90;;;;;;5093445;28;20031;-72
2024/01/08 08:04:13;;;;;;;11.75;6.75;;;-2.10;99.90;;;;;;5093320;28;20024;-73
2024/01/08 08:06:39;;;;;;;13.02;6.10;;;-2.00;99.90;;;;;;5093277;28;20059;-73
2024/01/08 08:09:05;;;;;;;9.77;5.22;;;-2.00;99.90;;;;;;5093370;28;20070;-73
2024/01/08 08:11:31;;;;;;;13.35;7.03;;;-2.00;99.90;;;;;;5093071;28;20020;-73
2024/01/08 08:13:56;;;;;;;12.15;7.53;;;-2.00;99.90;;;;;;5093056;28;20028;-73
2024/01/08 08:16:22;;;;;;;14.30;7.93;;;-2.00;99.90;;;;;;5093295;28;20032;-73
2024/01/08 08:18:48;;;;;;;11.25;6.25;;;-1.90;99.90;;;;;;5075355;28;20085;-73
2024/01/08 08:21:14;;;;;;;13.57;7.50;;;-1.90;99.90;;;;;;5093263;28;20077;-73
2024/01/08 08:23:39;;;;;;;12.60;6.75;;;-1.90;99.90;;;;;;5075226;28;20020;-73
2024/01/08 08:26:06;;;;;;;10.93;5.75;;;-1.80;99.90;;;;;;5093021;28;20039;-73
2024/01/08 08:28:32;;;;;;;11.25;6.40;;;-1.80;99.90;;;;;;5093016;28;20033;-73
2024/01/08 08:30:58;;;;;;;11.38;5.43;;;-1.80;99.90;;;;;;5093467;28;20032;-73
2024/01/08 08:33:23;;;;;;;9.68;5.88;;;-1.80;99.90;;;;;;5093114;28;20036;-73
2024/01/08 08:35:49;;;;;;;7.95;5.32;;;-1.80;99.90;;;;;;5093148;28;20024;-73
2024/01/08 08:38:16;;;;;;;10.43;5.60;;;-1.70;99.90;;;;;;5058507;28;20101;-73
2024/01/08 08:40:43;;;;;;;8.30;5.00;;;-1.70;99.90;;;;;;5092679;28;20115;-73
2024/01/08 08:43:09;;;;;;;10.13;5.72;;;-1.70;99.90;;;;;;5092998;28;20082;-73
2024/01/08 08:45:35;;;;;;;10.82;6.32;;;-1.70;99.90;;;;;;5093325;28;20107;-73
2024/01/08 08:48:01;;;;;;;14.55;7.65;;;-1.80;99.90;;;;;;5092919;28;20115;-73
2024/01/08 08:50:27;;;;;;;13.90;7.40;;;-1.70;99.90;;;;;;5095570;28;20020;-73
2024/01/08 08:52:53;;;;;;;11.68;6.15;;;-1.70;99.90;;;;;;5096943;28;20024;-73
2024/01/08 08:55:18;;;;;;;10.68;6.60;;;-1.70;99.90;;;;;;5096437;28;20100;-73
2024/01/08 08:57:44;;;;;;;13.35;6.53;;;-1.70;99.90;;;;;;5096862;28;20032;-73
2024/01/08 09:00:10;;;;;;;12.85;7.05;;;-1.70;99.90;;;;;;5096884;28;20025;-73
2024/01/08 09:02:36;;;;;;;9.25;5.50;;;-1.70;99.90;;;;;;5096419;28;20028;-73
2024/01/08 09:05:04;;;;;;;10.95;6.47;;;-1.70;99.90;;;;;;5096739;28;20498;-73
2024/01/08 09:07:30;;;;;;;11.27;6.68;;;-1.70;99.90;;;;;;5096349;28;20024;-73
2024/01/08 09:09:55;;;;;;;11.35;6.68;;;-1.60;99.90;;;;;;5096136;28;20388;-73
2024/01/08 09:12:21;;;;;;;11.40;6.20;;;-1.60;99.90;;;;;;5096308;28;20480;-73
2024/01/08 09:14:47;;;;;;;17.00;8.43;;;-1.50;99.90;;;;;;5096353;28;20027;-73
2024/01/08 09:17:13;;;;;;;14.25;7.53;;;-1.50;99.90;;;;;;5096258;28;20040;-73
2024/01/08 09:19:38;;;;;;;11.02;6.63;;;-1.40;99.90;;;;;;5078142;28;20377;-73
2024/01/08 09:22:04;;;;;;;13.55;7.28;;;-1.40;99.90;;;;;;5096211;28;20385;-73
2024/01/08 09:24:30;;;;;;;11.45;5.53;;;-1.40;99.90;;;;;;5077985;28;20062;-73
2024/01/08 09:26:55;;;;;;;9.75;5.97;;;-1.40;99.90;;;;;;5077778;28;20028;-73
2024/01/08 09:29:21;;;;;;;10.07;5.38;;;-1.30;99.90;;;;;;5095919;28;20027;-73
2024/01/08 09:31:47;;;;;;;10.88;6.25;;;-1.20;99.90;;;;;;5096029;28;20032;-73
2024/01/08 09:34:13;;;;;;;12.65;7.18;;;-1.20;99.90;;;;;;5096016;28;20033;-73
2024/01/08 09:36:39;;;;;;;10.70;6.03;;;-1.10;99.90;;;;;;5096198;28;20031;-73
2024/01/08 09:39:05;;;;;;;10.82;6.22;;;-1.10;99.90;;;;;;5096417;28;20032;-73
2024/01/08 09:41:31;;;;;;;11.25;6.30;;;-1.00;99.90;;;;;;5077380;28;20077;-72
2024/01/08 09:44:03;;;;;;;11.35;5.63;;;-1.00;99.90;;;;;;5095709;28;20039;-73
2024/01/08 09:46:34;;;;;;;13.15;6.55;;;-0.90;99.90;;;;;;5095672;28;20024;-73
2024/01/08 09:49:01;;;;;;;11.60;5.82;;;-0.80;99.90;;;;;;5096220;28;20050;-73
2024/01/08 09:51:27;;;;;;;9.95;5.75;;;-0.80;99.90;;;;;;5095843;28;20031;-73
2024/01/08 09:53:55;;;;;;;10.85;6.32;;;-0.80;99.90;;;;;;5095534;28;20028;-73
2024/01/08 09:56:22;;;;;;;12.93;6.03;;;-0.80;99.90;;;;;;5077165;28;20074;-73
2024/01/08 09:58:48;;;;;;;15.18;8.30;;;-0.80;99.90;;;;;;5095974;28;20478;-72
2024/01/08 10:01:14;;;;;;;12.75;6.85;;;-0.80;99.90;;;;;;5095661;28;20059;-72
2024/01/08 10:03:40;;;;;;;26.05;13.90;;;-0.80;99.90;;;;;;5095597;28;20020;-73
2024/01/08 10:06:08;;;;;;;18.50;9.57;;;-0.80;99.90;;;;;;5095248;28;20491;-73
2024/01/08 10:08:33;;;;;;;18.23;8.98;;;-0.80;99.90;;;;;;5077447;28;20437;-73
2024/01/08 10:10:59;;;;;;;16.05;8.60;;;-0.70;99.90;;;;;;5095215;28;20020;-73
2024/01/08 10:13:25;;;;;;;16.13;8.32;;;-0.70;99.90;;;;;;5095487;28;20024;-73
2024/01/08 10:15:52;;;;;;;12.27;7.45;;;-0.70;99.90;;;;;;5095926;28;20025;-73
2024/01/08 10:18:18;;;;;;;14.05;7.53;;;-0.60;99.90;;;;;;5095052;28;20050;-72
2024/01/08 10:20:44;;;;;;;14.18;7.30;;;-0.60;99.90;;;;;;5077290;28;20051;-72
2024/01/08 10:23:12;;;;;;;12.07;5.85;;;-0.60;99.90;;;;;;5060768;28;20485;-73
2024/01/08 10:25:39;;;;;;;10.95;5.28;;;-0.70;99.90;;;;;;5094666;28;20028;-73
2024/01/08 10:28:09;;;;;;;14.32;7.20;;;-0.70;99.90;;;;;;5094642;28;20050;-73
2024/01/08 10:30:35;;;;;;;11.63;7.38;;;-0.70;99.90;;;;;;5095199;28;20036;-73
2024/01/08 10:33:01;;;;;;;16.95;8.88;;;-0.70;99.90;;;;;;5094698;28;20025;-73
2024/01/08 10:35:28;;;;;;;10.57;6.45;;;-0.70;99.90;;;;;;5095306;28;20073;-71
2024/01/08 10:37:56;;;;;;;11.85;6.75;;;-0.70;99.90;;;;;;5095255;28;20028;-71
2024/01/08 10:40:21;;;;;;;13.10;6.80;;;-0.80;99.90;;;;;;5094392;28;20020;-71
2024/01/08 10:42:48;;;;;;;13.93;6.97;;;-0.80;99.90;;;;;;5094502;28;20035;-71
2024/01/08 10:45:13;;;;;;;10.68;6.32;;;-0.70;99.90;;;;;;5094870;28;20035;-71
2024/01/08 10:47:49;;;;;;;10.60;5.95;;;-0.70;99.90;;;;;;5094992;28;20383;-70
2024/01/08 10:50:18;;;;;;;9.75;6.18;;;-0.70;99.90;;;;;;5094515;28;20023;-71
2024/01/08 10:52:51;;;;;;;15.23;6.60;;;-0.70;99.90;;;;;;5094659;28;20024;-71
2024/01/08 10:55:17;;;;;;;11.88;6.25;;;-0.70;99.90;;;;;;5094621;28;20027;-72
2024/01/08 10:58:03;;;;;;;12.35;6.10;;;-0.60;99.90;;;;;;5076324;28;20032;-71
2024/01/08 11:00:29;;;;;;;12.07;6.13;;;-0.60;99.90;;;;;;5094872;28;20024;-71
2024/01/08 11:02:55;;;;;;;10.32;5.18;;;-0.60;99.90;;;;;;5094156;28;20108;-71
2024/01/08 11:05:21;;;;;;;8.85;5.55;;;-0.60;99.90;;;;;;5094159;28;20499;-71
2024/01/08 11:07:51;;;;;;;10.05;5.57;;;-0.60;99.90;;;;;;5094102;28;20029;-71
2024/01/08 11:10:17;;;;;;;7.80;4.57;;;-0.50;99.90;;;;;;5094207;28;20441;-71
2024/01/08 11:12:56;;;;;;;9.07;5.03;;;-0.50;99.90;;;;;;5075259;28;20031;-71
2024/01/08 11:15:26;;;;;;;7.50;4.43;;;-0.50;99.90;;;;;;5094028;28;20096;-71
2024/01/08 11:17:53;;;;;;;10.63;5.53;;;-0.40;99.90;;;;;;5093996;28;20046;-71
2024/01/08 11:20:34;;;;;;;8.75;5.07;;;-0.40;99.90;;;;;;5093897;28;20031;-71
2024/01/08 11:23:04;;;;;;;13.20;6.20;;;-0.30;99.90;;;;;;5093797;28;20081;-71
2024/01/08 11:25:29;;;;;;;11.45;5.97;;;-0.40;99.90;;;;;;5093736;28;20042;-71
2024/01/08 11:27:58;;;;;;;11.25;5.88;;;-0.50;99.90;;;;;;5093825;28;20118;-71
2024/01/08 11:30:24;;;;;;;10.10;5.75;;;-0.50;99.90;;;;;;5093836;28;20097;-71
2024/01/08 11:33:18;;;;;;;11.55;5.90;;;-0.50;99.90;;;;;;5093706;28;20480;-71
2024/01/08 11:35:58;;;;;;;9.65;5.10;;;-0.40;99.90;;;;;;5093785;28;20020;-71
2024/01/08 11:38:27;;;;;;;8.77;5.10;;;-0.40;99.90;;;;;;5094049;28;20028;-71
2024/01/08 11:40:54;;;;;;;10.32;5.30;;;-0.40;99.90;;;;;;5093397;28;20028;-71
2024/01/08 11:43:21;;;;;;;9.57;5.40;;;-0.40;99.90;;;;;;5075355;28;20027;-71
2024/01/08 11:45:47;;;;;;;12.88;6.00;;;-0.30;99.90;;;;;;5093607;28;20034;-71
2024/01/08 11:48:12;;;;;;;10.68;5.57;;;-0.40;99.90;;;;;;5094095;28;20020;-71
2024/01/08 11:50:41;;;;;;;11.52;5.35;;;-0.40;99.90;;;;;;5093767;28;20024;-71
2024/01/08 11:53:12;;;;;;;11.02;5.50;;;-0.50;99.90;;;;;;5093458;28;20094;-71
2024/01/08 11:55:40;;;;;;;10.20;5.72;;;-0.60;99.90;;;;;;5093556;28;20056;-71
2024/01/08 11:58:07;;;;;;;10.82;5.63;;;-0.60;99.90;;;;;;5093778;28;20028;-71
2024/01/08 12:00:33;;;;;;;8.27;5.32;;;-0.60;99.90;;;;;;5093442;28;20399;-71
2024/01/08 12:03:03;;;;;;;11.23;5.88;;;-0.70;99.90;;;;;;5058679;28;20028;-71
2024/01/08 12:05:29;;;;;;;8.02;5.47;;;-0.70;99.90;;;;;;5075347;28;20035;-71
2024/01/08 12:07:54;;;;;;;10.55;5.53;;;-0.70;99.90;;;;;;5093258;28;20032;-70
2024/01/08 12:10:20;;;;;;;13.65;7.85;;;-0.80;99.90;;;;;;5093406;28;20111;-71
2024/01/08 12:12:46;;;;;;;9.05;5.53;;;-0.80;99.90;;;;;;5092972;28;20070;-71
2024/01/08 12:15:11;;;;;;;12.27;6.10;;;-0.80;99.90;;;;;;5092719;28;20115;-71
2024/01/08 12:17:38;;;;;;;12.88;6.63;;;-0.80;99.90;;;;;;5093541;28;20063;-71
2024/01/08 12:20:05;;;;;;;10.50;6.10;;;-0.80;99.90;;;;;;5093262;28;20093;-71
2024/01/08 12:22:31;;;;;;;11.60;6.15;;;-0.80;99.90;;;;;;5093202;28;20047;-71
2024/01/08 12:24:57;;;;;;;10.35;5.45;;;-0.80;99.90;;;;;;5093436;28;20064;-71
2024/01/08 12:27:31;;;;;;;10.52;5.53;;;-0.80;99.90;;;;;;5096983;28;20028;-71
2024/01/08 12:29:57;;;;;;;12.05;5.63;;;-0.80;99.90;;;;;;5097282;28;20028;-71
2024/01/08 12:32:24;;;;;;;11.05;5.45;;;-0.80;99.90;;;;;;5097091;28;20356;-71
2024/01/08 12:34:50;;;;;;;11.57;5.97;;;-0.80;99.90;;;;;;5096911;28;20036;-71
2024/01/08 12:37:18;;;;;;;9.88;5.55;;;-0.80;99.90;;;;;;5097070;28;20035;-71
2024/01/08 12:39:45;;;;;;;11.73;5.63;;;-0.80;99.90;;;;;;5097206;28;20431;-71